Time;durP1;ratioP1;P1;durP2;ratioP2;P2;SDS_P1;SDS_P2;PMS_P1;PMS_P2;Temp;Humidity;BMP_temperature;BMP_pressure;BME280_temperature;BME280_humidity;BME280_pressure;Samples;Min_cycle;Max_cycle;Signal;HPM_P1;HPM_P2
2022/05/23 00:01:15;;;;;;;17.13;9.25;;;;;;;17.02;58.76;98356.47;5006049;28;20054;-82
2022/05/23 00:03:40;;;;;;;11.82;8.10;;;;;;;17.04;58.43;98348.06;5011060;28;20035;-82
2022/05/23 00:06:06;;;;;;;14.50;7.45;;;;;;;17.03;58.28;98343.78;5012820;28;20033;-82
2022/05/23 00:08:32;;;;;;;14.38;8.15;;;;;;;17.12;59.22;98363.56;4995271;28;21328;-82
2022/05/23 00:10:57;;;;;;;11.95;7.85;;;;;;;17.03;58.79;98362.66;4992970;28;20382;-82
2022/05/23 00:13:22;;;;;;;14.52;7.18;;;;;;;16.97;58.88;98355.78;5008546;28;20121;-82
2022/05/23 00:15:48;;;;;;;13.95;8.35;;;;;;;17.04;58.67;98364.25;4988003;28;20179;-82
2022/05/23 00:18:13;;;;;;;12.18;7.32;;;;;;;17.03;58.32;98362.66;5006761;28;20035;-82
2022/05/23 00:20:38;;;;;;;11.95;7.47;;;;;;;16.97;58.75;98342.31;5003572;28;20030;-82
2022/05/23 00:23:04;;;;;;;11.45;7.05;;;;;;;16.91;58.60;98344.28;4979157;28;20040;-82
2022/05/23 00:25:29;;;;;;;12.18;7.40;;;;;;;16.90;58.91;98352.69;4997207;28;20080;-82
2022/05/23 00:27:54;;;;;;;12.25;7.35;;;;;;;16.96;58.95;98354.97;5005644;28;21472;-82
2022/05/23 00:30:23;;;;;;;10.73;7.18;;;;;;;16.94;58.56;98338.31;5007587;28;20180;-82
2022/05/23 00:35:34;;;;;;;10.57;6.47;;;;;;;16.82;58.71;98329.16;5010996;28;20117;-82
2022/05/23 00:38:00;;;;;;;7.43;5.95;;;;;;;16.93;58.79;98336.69;4999724;28;20121;-82
2022/05/23 00:40:28;;;;;;;12.70;7.53;;;;;;;16.92;58.46;98326.22;5019641;28;20029;-81
2022/05/23 00:43:19;;;;;;;8.90;5.78;;;;;;;16.84;58.74;98327.72;5010042;28;20029;-82
2022/05/23 00:45:51;;;;;;;8.68;6.93;;;;;;;16.92;58.94;98327.03;5004901;28;20557;-82
2022/05/23 00:48:23;;;;;;;8.20;5.80;;;;;;;16.77;59.21;98321.16;5010773;28;20108;-82
2022/05/23 00:50:55;;;;;;;11.50;5.95;;;;;;;16.79;58.90;98317.06;5011615;28;20048;-82
2022/05/23 00:53:27;;;;;;;11.45;6.50;;;;;;;16.86;58.52;98328.22;5014665;28;20033;-82
2022/05/23 00:55:52;;;;;;;9.13;5.53;;;;;;;16.84;59.07;98329.66;5003421;28;20026;-83
2022/05/23 00:58:22;;;;;;;12.70;5.45;;;;;;;16.76;58.85;98309.56;5003443;28;20038;-82
2022/05/23 01:00:49;;;;;;;10.63;5.82;;;;;;;16.63;58.96;98290.72;4990440;28;20069;-82
2022/05/23 01:03:17;;;;;;;7.15;5.50;;;;;;;16.79;58.74;98308.97;5008236;28;20036;-82
2022/05/23 01:05:43;;;;;;;8.05;5.57;;;;;;;16.81;59.27;98316.75;5005617;28;20034;-82
2022/05/23 01:08:09;;;;;;;16.40;5.60;;;;;;;16.77;58.80;98300.41;5006447;28;20040;-82
2022/05/23 01:10:37;;;;;;;13.73;5.82;;;;;;;16.77;59.23;98300.41;5006945;28;20069;-82
2022/05/23 01:13:03;;;;;;;7.47;5.47;;;;;;;16.68;59.27;98294.13;5001752;28;20045;-82
2022/05/23 01:15:30;;;;;;;7.50;5.20;;;;;;;16.67;58.97;98299.78;5002582;28;20520;-83
2022/05/23 01:17:56;;;;;;;10.05;5.03;;;;;;;16.67;59.38;98297.09;5006488;28;20363;-82
2022/05/23 01:20:23;;;;;;;9.35;5.45;;;;;;;16.62;59.28;98295.31;5004489;28;20088;-82
2022/05/23 01:23:03;;;;;;;7.10;5.38;;;;;;;16.73;59.27;98310.16;5014776;28;20533;-82
2022/05/23 01:25:43;;;;;;;8.82;5.15;;;;;;;16.50;59.81;98286.94;5004371;28;20691;-82
2022/05/23 01:28:09;;;;;;;8.25;5.57;;;;;;;16.60;59.65;98299.41;5004639;28;20365;-82
2022/05/23 01:30:35;;;;;;;7.47;5.40;;;;;;;16.64;59.95;98295.81;5007347;28;20083;-82
2022/05/23 01:33:02;;;;;;;7.97;5.45;;;;;;;16.64;59.52;98295.03;5010953;28;20034;-82
2022/05/23 01:35:28;;;;;;;5.75;4.60;;;;;;;16.63;59.62;98279.94;5008992;28;20029;-81
2022/05/23 01:37:54;;;;;;;9.10;5.60;;;;;;;16.63;59.36;98280.75;5009201;28;20025;-82
2022/05/23 01:40:19;;;;;;;6.38;4.80;;;;;;;16.49;59.71;98272.63;5005840;28;20029;-82
2022/05/23 01:42:45;;;;;;;5.55;4.80;;;;;;;16.61;59.67;98268.66;5002654;28;20038;-82
2022/05/23 01:45:13;;;;;;;8.18;4.93;;;;;;;16.58;59.87;98269.28;5007999;28;20131;-82
2022/05/23 01:47:39;;;;;;;9.80;4.93;;;;;;;16.60;59.81;98275.16;5006529;28;20125;-82
2022/05/23 01:50:06;;;;;;;4.88;4.43;;;;;;;16.63;60.16;98261.88;5022666;28;20105;-82
2022/05/23 01:52:31;;;;;;;8.70;5.15;;;;;;;16.56;59.71;98253.41;5007564;28;20025;-82
2022/05/23 01:54:57;;;;;;;6.85;4.78;;;;;;;16.47;59.60;98236.31;4987359;28;20066;-82
2022/05/23 01:57:22;;;;;;;7.97;4.68;;;;;;;16.57;60.00;98257.69;4988041;28;20122;-82
2022/05/23 02:02:31;;;;;;;8.25;4.38;;;;;;;16.54;59.65;98233.25;5009256;28;20033;-82
2022/05/23 02:04:57;;;;;;;6.65;4.40;;;;;;;16.49;59.39;98226.03;4989896;28;20027;-82
2022/05/23 02:07:22;;;;;;;7.07;4.90;;;;;;;16.53;59.71;98234.34;5020856;28;20461;-82
2022/05/23 02:09:48;;;;;;;5.60;5.03;;;;;;;16.54;60.25;98236.75;5004509;28;20493;-82
2022/05/23 02:12:18;;;;;;;4.68;4.22;;;;;;;16.56;59.57;98226.47;5004916;28;20081;-82
2022/05/23 02:14:45;;;;;;;7.65;4.97;;;;;;;16.52;59.82;98227.34;4996682;28;20149;-82
2022/05/23 02:17:11;;;;;;;6.03;4.50;;;;;;;16.49;59.57;98237.59;5009478;28;20034;-82
2022/05/23 02:19:36;;;;;;;11.07;4.82;;;;;;;16.36;60.31;98230.34;5009721;28;21392;-82
2022/05/23 02:22:03;;;;;;;7.13;4.72;;;;;;;16.45;59.47;98225.03;5012773;28;20028;-82
2022/05/23 02:24:28;;;;;;;8.07;4.65;;;;;;;16.48;59.95;98235.22;4996460;28;20030;-82
2022/05/23 02:26:54;;;;;;;6.63;5.32;;;;;;;16.35;60.32;98242.22;5012293;28;20408;-82
2022/05/23 02:29:19;;;;;;;7.80;4.60;;;;;;;16.32;60.53;98239.31;5025175;28;20029;-82
2022/05/23 02:31:44;;;;;;;7.40;4.50;;;;;;;16.47;59.86;98247.91;5005980;28;20041;-82
2022/05/23 02:34:12;;;;;;;6.63;4.53;;;;;;;16.37;60.37;98240.03;5028364;28;20034;-82
2022/05/23 02:36:38;;;;;;;7.18;4.82;;;;;;;16.24;60.36;98234.66;5007575;28;20034;-84
2022/05/23 02:39:04;;;;;;;8.85;5.43;;;;;;;16.35;60.14;98257.59;5009330;28;20069;-84
2022/05/23 02:41:29;;;;;;;10.38;5.30;;;;;;;16.39;60.58;98243.22;5008644;28;20113;-84
2022/05/23 02:43:54;;;;;;;7.43;4.85;;;;;;;16.38;60.13;98235.44;4996931;28;20039;-81
2022/05/23 02:46:19;;;;;;;7.97;4.50;;;;;;;16.24;59.67;98224.69;4992626;28;20033;-82
2022/05/23 02:48:45;;;;;;;7.13;4.60;;;;;;;16.20;59.89;98223.69;4991133;28;20742;-84
2022/05/23 02:51:10;;;;;;;7.10;4.90;;;;;;;16.27;60.49;98231.38;5025306;28;20030;-83
2022/05/23 02:53:36;;;;;;;9.30;4.57;;;;;;;16.16;60.43;98214.59;5007441;28;20362;-81
2022/05/23 02:56:01;;;;;;;10.63;5.13;;;;;;;16.19;60.55;98215.88;5011843;28;20546;-82
2022/05/23 02:58:26;;;;;;;8.07;4.32;;;;;;;16.21;59.92;98221.75;5009608;28;20065;-84
2022/05/23 03:00:52;;;;;;;15.05;5.47;;;;;;;16.16;59.79;98211.13;5011427;28;20108;-82
2022/05/23 03:03:17;;;;;;;11.45;5.30;;;;;;;16.17;60.23;98215.38;4985735;28;20505;-81
2022/05/23 03:05:46;;;;;;;8.10;4.50;;;;;;;16.24;59.81;98216.59;5007814;28;20062;-82
2022/05/23 03:08:14;;;;;;;8.98;4.90;;;;;;;16.23;59.79;98215.00;5008486;28;20044;-81
2022/05/23 03:10:39;;;;;;;6.03;4.35;;;;;;;16.20;59.86;98220.19;5028522;28;20114;-81
2022/05/23 03:13:06;;;;;;;7.30;4.35;;;;;;;16.25;60.12;98207.41;5013583;28;20088;-84
2022/05/23 03:15:32;;;;;;;8.18;3.97;;;;;;;16.15;60.00;98196.03;5010829;28;20037;-81
2022/05/23 03:17:57;;;;;;;5.75;4.07;;;;;;;16.09;60.17;98194.56;5007125;28;20044;-81
2022/05/23 03:20:23;;;;;;;6.07;3.97;;;;;;;16.16;60.05;98193.03;5002194;28;20105;-81
2022/05/23 03:28:17;;;;;;;4.85;3.92;;;;;;;16.16;60.08;98203.03;5010045;28;20040;-83
2022/05/23 03:30:43;;;;;;;7.05;4.38;;;;;;;16.20;60.01;98204.84;5006768;28;20041;-82
2022/05/23 03:33:11;;;;;;;8.68;4.28;;;;;;;16.15;59.94;98188.78;5018482;28;20038;-82
2022/05/23 03:35:37;;;;;;;11.77;4.43;;;;;;;16.05;60.39;98183.59;4997803;28;21802;-82
2022/05/23 03:38:04;;;;;;;11.73;4.15;;;;;;;16.14;60.04;98191.78;5008346;28;20452;-82
2022/05/23 03:40:29;;;;;;;4.05;3.67;;;;;;;16.18;59.97;98180.09;5009667;28;20112;-82
2022/05/23 03:42:55;;;;;;;7.38;4.25;;;;;;;16.11;60.50;98147.41;5010798;28;20080;-82
2022/05/23 03:45:21;;;;;;;6.60;3.95;;;;;;;16.20;60.03;98177.09;5008985;28;20026;-82
2022/05/23 03:47:50;;;;;;;6.10;3.78;;;;;;;16.19;59.57;98160.16;5003972;28;20026;-82
2022/05/23 03:50:15;;;;;;;6.60;3.58;;;;;;;16.10;59.91;98159.25;5009997;28;20092;-82
2022/05/23 03:52:40;;;;;;;6.78;3.92;;;;;;;16.05;60.24;98159.38;4991459;28;20073;-82
2022/05/23 03:55:06;;;;;;;5.18;4.22;;;;;;;16.16;60.10;98160.72;5003745;28;20566;-82
2022/05/23 03:57:31;;;;;;;6.22;3.97;;;;;;;16.20;60.06;98166.34;5008984;28;20041;-82
2022/05/23 03:59:57;;;;;;;8.18;4.50;;;;;;;16.23;60.41;98165.72;5008594;28;20116;-82
2022/05/23 04:02:23;;;;;;;5.43;4.20;;;;;;;16.27;60.06;98166.72;5007343;28;20034;-82
2022/05/23 04:04:48;;;;;;;4.40;3.63;;;;;;;16.21;60.41;98170.59;5007976;28;20041;-82
2022/05/23 04:07:14;;;;;;;7.30;4.18;;;;;;;16.23;60.15;98147.66;4986471;28;20105;-82
2022/05/23 04:09:40;;;;;;;6.03;4.15;;;;;;;16.26;60.29;98149.78;5000728;28;20570;-82
2022/05/23 04:12:06;;;;;;;7.85;4.15;;;;;;;16.30;60.44;98147.25;5011152;28;20030;-83
2022/05/23 04:14:31;;;;;;;5.45;4.13;;;;;;;16.30;59.88;98139.97;4995815;28;20484;-82
2022/05/23 04:16:56;;;;;;;4.75;3.65;;;;;;;16.10;60.53;98132.31;4993461;28;20459;-81
2022/05/23 04:19:22;;;;;;;4.72;4.32;;;;;;;16.16;60.63;98122.25;5026610;28;20657;-82
2022/05/23 04:21:48;;;;;;;4.13;3.80;;;;;;;16.33;60.47;98139.38;5009196;28;20465;-82
2022/05/23 04:24:16;;;;;;;4.53;4.03;;;;;;;16.21;60.65;98130.22;5010663;28;20030;-81
2022/05/23 04:26:42;;;;;;;4.78;4.28;;;;;;;16.20;60.83;98132.13;5025193;28;20045;-82
2022/05/23 04:29:07;;;;;;;6.57;4.20;;;;;;;16.31;60.87;98138.91;4980201;28;20038;-82
2022/05/23 04:31:34;;;;;;;6.20;4.40;;;;;;;16.34;60.80;98140.97;5006742;28;20034;-81
2022/05/23 04:36:43;;;;;;;8.40;4.05;;;;;;;16.32;60.91;98126.19;5006271;28;20052;-81
2022/05/23 04:39:09;;;;;;;6.97;4.32;;;;;;;16.37;60.34;98134.19;5006648;28;21248;-81
2022/05/23 04:41:35;;;;;;;6.47;3.45;;;;;;;16.24;60.92;98124.25;5006143;28;20149;-82
2022/05/23 04:44:00;;;;;;;4.93;3.80;;;;;;;16.38;60.68;98127.72;5002003;28;20034;-81
2022/05/23 04:46:27;;;;;;;6.78;3.90;;;;;;;16.34;60.72;98127.50;5016139;28;21115;-81
2022/05/23 04:51:36;;;;;;;3.95;3.55;;;;;;;16.43;60.42;98112.22;5003592;28;20057;-81
2022/05/23 04:54:02;;;;;;;9.55;4.22;;;;;;;16.47;60.74;98115.88;5027920;28;20061;-81
2022/05/23 04:56:29;;;;;;;6.35;4.75;;;;;;;16.42;61.21;98113.31;5000800;28;20034;-81
2022/05/23 04:58:55;;;;;;;7.40;4.93;;;;;;;16.30;61.00;98104.97;5003843;28;20034;-81
2022/05/23 05:01:21;;;;;;;6.65;4.05;;;;;;;16.35;60.92;98109.44;4992048;28;20083;-82
2022/05/23 05:03:48;;;;;;;9.18;4.35;;;;;;;16.41;60.93;98119.00;5002697;28;20043;-82
2022/05/23 05:06:13;;;;;;;7.50;5.10;;;;;;;16.40;61.22;98114.72;5010420;28;20065;-82
2022/05/23 05:08:38;;;;;;;11.88;6.05;;;;;;;16.48;60.50;98109.41;4986943;28;20080;-82
2022/05/23 05:11:04;;;;;;;7.57;4.78;;;;;;;16.50;60.75;98117.22;5010471;28;20540;-82
2022/05/23 05:13:33;;;;;;;9.02;6.35;;;;;;;16.49;60.69;98102.09;5009730;28;20049;-83
2022/05/23 05:16:03;;;;;;;10.38;4.85;;;;;;;16.55;60.79;98109.03;5011044;28;20018;-83
2022/05/23 05:18:30;;;;;;;6.80;5.43;;;;;;;16.53;60.96;98102.34;5011755;28;20073;-83
2022/05/23 05:20:57;;;;;;;7.97;5.05;;;;;;;16.61;60.67;98109.69;5010625;28;20021;-83
2022/05/23 05:23:22;;;;;;;7.45;4.93;;;;;;;16.55;61.04;98092.06;5010999;28;20133;-83
2022/05/23 05:25:51;;;;;;;7.88;4.95;;;;;;;16.67;60.57;98090.41;5008651;28;20034;-83
2022/05/23 05:28:17;;;;;;;6.75;6.03;;;;;;;16.71;60.64;98098.69;5007299;28;20025;-81
2022/05/23 05:30:49;;;;;;;6.80;4.93;;;;;;;16.73;60.81;98099.19;4993170;28;20037;-82
2022/05/23 05:33:20;;;;;;;7.32;5.45;;;;;;;16.74;60.40;98103.44;5005221;28;20045;-82
2022/05/23 05:35:54;;;;;;;9.65;4.38;;;;;;;16.64;60.36;98074.06;5002632;28;20034;-82
2022/05/23 05:38:30;;;;;;;12.55;5.32;;;;;;;16.72;60.78;98076.81;5008910;28;20034;-82
2022/05/23 05:41:03;;;;;;;7.95;4.88;;;;;;;16.77;60.48;98074.00;5004734;28;20105;-81
2022/05/23 05:43:34;;;;;;;7.85;5.03;;;;;;;16.83;60.73;98077.34;5006120;28;20371;-82
2022/05/23 05:46:09;;;;;;;8.57;4.45;;;;;;;16.82;60.72;98073.84;5009105;28;20045;-82
2022/05/23 05:48:40;;;;;;;4.82;4.32;;;;;;;16.86;60.31;98074.06;5007964;28;20309;-81
2022/05/23 05:51:07;;;;;;;5.40;4.80;;;;;;;16.82;60.29;98065.78;5008974;28;20063;-81
2022/05/23 05:53:33;;;;;;;9.80;5.35;;;;;;;16.87;60.43;98070.25;5004553;28;20519;-81
2022/05/23 05:56:01;;;;;;;11.45;5.45;;;;;;;16.89;60.64;98065.34;5008451;28;20116;-82
2022/05/23 05:58:27;;;;;;;6.35;5.10;;;;;;;16.87;60.48;98057.56;5005229;28;20034;-81
2022/05/23 06:00:53;;;;;;;5.85;5.22;;;;;;;16.87;60.43;98052.19;5010608;28;20034;-81
2022/05/23 06:03:18;;;;;;;6.43;5.63;;;;;;;16.89;60.85;98060.75;4980891;28;20566;-81
2022/05/23 06:11:23;;;;;;;6.32;5.07;;;;;;;16.91;60.96;98047.75;5003737;28;20554;-81
2022/05/23 06:13:50;;;;;;;7.40;5.10;;;;;;;16.89;60.51;98041.88;5011836;28;20466;-81
2022/05/23 06:16:16;;;;;;;6.50;4.97;;;;;;;16.93;60.73;98039.34;5031573;28;20030;-82
2022/05/23 06:18:42;;;;;;;7.07;4.57;;;;;;;16.87;60.87;98025.22;5002420;28;20100;-81
2022/05/23 06:21:09;;;;;;;9.32;5.25;;;;;;;16.96;60.61;98028.75;5008652;28;20109;-81
2022/05/23 06:23:36;;;;;;;6.72;5.22;;;;;;;16.85;60.86;98005.88;5007502;28;20035;-81
2022/05/23 06:26:01;;;;;;;8.65;5.88;;;;;;;17.02;60.77;98026.72;5009282;28;20037;-82
2022/05/23 06:28:26;;;;;;;9.20;5.25;;;;;;;16.93;60.63;98015.09;5005748;28;20040;-82
2022/05/23 06:30:52;;;;;;;8.73;5.53;;;;;;;17.01;60.52;98027.84;5023544;28;20224;-81
2022/05/23 06:33:17;;;;;;;6.00;5.00;;;;;;;17.11;60.95;98039.16;4994958;28;20124;-82
2022/05/23 06:35:42;;;;;;;8.10;5.45;;;;;;;17.04;60.68;98013.72;5009870;28;20199;-82
2022/05/23 06:38:08;;;;;;;7.22;5.00;;;;;;;17.21;61.16;98016.50;5003218;28;20034;-81
2022/05/23 06:40:34;;;;;;;15.02;5.18;;;;;;;17.18;60.75;98004.44;5005580;28;20054;-81
2022/05/23 06:43:01;;;;;;;4.95;4.43;;;;;;;17.24;60.95;98010.47;5002136;28;20032;-81
2022/05/23 06:45:26;;;;;;;8.10;5.25;;;;;;;17.34;60.75;97991.34;5010127;28;20030;-81
2022/05/23 06:47:52;;;;;;;7.30;4.95;;;;;;;17.35;60.29;97990.22;5004410;28;20088;-83
2022/05/23 06:50:17;;;;;;;9.75;6.60;;;;;;;17.39;60.64;97999.25;5004073;28;20038;-81
2022/05/23 06:52:42;;;;;;;9.82;4.40;;;;;;;17.40;59.98;97987.38;4997734;28;20034;-81
2022/05/23 06:55:08;;;;;;;5.50;4.55;;;;;;;17.49;60.42;97996.28;5014275;28;20040;-81
2022/05/23 06:57:34;;;;;;;8.10;5.18;;;;;;;17.48;60.40;97983.91;5002852;28;20048;-81
2022/05/23 06:59:59;;;;;;;7.18;5.20;;;;;;;17.50;60.63;97976.31;5023779;28;20033;-80
2022/05/23 07:02:24;;;;;;;7.53;5.45;;;;;;;17.56;60.19;97980.44;4990553;28;20092;-83
2022/05/23 07:13:02;;;;;;;8.27;5.47;;;;;;;17.67;60.18;97989.84;5009286;28;20508;-83
2022/05/23 07:15:27;;;;;;;9.82;5.00;;;;;;;17.71;60.47;97990.78;5013199;28;20046;-80
2022/05/23 07:17:53;;;;;;;7.53;4.90;;;;;;;17.75;60.27;97986.38;4999664;28;20038;-80
2022/05/23 07:20:18;;;;;;;6.28;5.00;;;;;;;17.83;60.18;97974.78;5010517;28;20496;-80
2022/05/23 07:22:44;;;;;;;10.65;5.63;;;;;;;17.85;59.67;97971.75;5004690;28;20037;-80
2022/05/23 07:25:10;;;;;;;6.95;4.78;;;;;;;17.85;60.11;97969.06;4986699;28;20113;-83
2022/05/23 07:27:35;;;;;;;8.35;5.10;;;;;;;17.98;59.92;97960.00;5007638;28;20040;-80
2022/05/23 07:30:01;;;;;;;6.03;4.85;;;;;;;18.02;59.75;97946.69;5009385;28;20065;-80
2022/05/23 07:32:26;;;;;;;9.88;5.93;;;;;;;18.19;59.81;97957.47;5013195;28;20042;-80
2022/05/23 07:34:51;;;;;;;5.90;5.30;;;;;;;18.18;59.81;97945.88;5010591;28;20058;-81
2022/05/23 07:37:17;;;;;;;8.80;5.40;;;;;;;18.28;60.09;97947.47;5024677;28;20045;-80
2022/05/23 07:39:42;;;;;;;7.38;5.50;;;;;;;18.39;60.21;97940.63;5003296;28;20052;-81
2022/05/23 07:42:09;;;;;;;9.27;5.50;;;;;;;18.40;59.96;97915.97;5009265;28;20478;-82
2022/05/23 07:44:36;;;;;;;7.43;5.10;;;;;;;18.52;60.07;97915.34;5013737;28;20034;-83
2022/05/23 07:47:01;;;;;;;7.88;5.22;;;;;;;18.50;59.90;97915.63;5009094;28;20049;-82
2022/05/23 07:49:27;;;;;;;6.13;4.72;;;;;;;18.47;59.67;97902.78;5003336;28;20498;-82
2022/05/23 07:51:54;;;;;;;8.35;5.68;;;;;;;18.50;60.35;97901.34;5009350;28;20519;-82
2022/05/23 08:02:31;;;;;;;7.20;4.65;;;;;;;18.76;60.21;97902.06;5006288;28;20080;-82
2022/05/23 08:04:58;;;;;;;5.20;4.72;;;;;;;18.73;60.30;97891.88;5012615;28;20462;-83
2022/05/23 08:07:28;;;;;;;8.98;5.20;;;;;;;18.74;59.86;97904.28;4990459;28;20041;-82
2022/05/23 08:09:53;;;;;;;6.22;4.63;;;;;;;18.82;59.98;97892.66;5016184;28;20026;-82
2022/05/23 08:12:18;;;;;;;8.10;4.95;;;;;;;18.83;59.63;97880.69;5009297;28;20025;-81
2022/05/23 08:14:44;;;;;;;10.73;4.78;;;;;;;18.83;59.83;97901.56;5027426;28;20048;-82
2022/05/23 08:17:09;;;;;;;7.13;4.32;;;;;;;18.89;59.51;97892.94;5006298;28;20044;-82
2022/05/23 08:19:34;;;;;;;5.85;4.07;;;;;;;18.84;59.74;97895.81;5012108;28;20560;-83
2022/05/23 08:22:00;;;;;;;12.63;4.95;;;;;;;18.93;59.71;97882.25;4996096;28;20065;-82
2022/05/23 08:24:25;;;;;;;6.07;4.50;;;;;;;18.96;59.70;97874.28;5010954;28;20080;-82
2022/05/23 08:26:51;;;;;;;7.30;4.60;;;;;;;18.95;59.42;97861.88;5025348;28;20030;-82
2022/05/23 08:29:16;;;;;;;7.75;4.70;;;;;;;19.05;59.15;97863.41;5008523;28;20037;-82
2022/05/23 08:31:42;;;;;;;8.07;4.63;;;;;;;19.13;59.49;97865.28;5013280;28;20045;-82
2022/05/23 08:34:08;;;;;;;8.18;4.65;;;;;;;19.09;59.27;97853.53;5010254;28;20044;-82
2022/05/23 08:36:34;;;;;;;7.72;4.38;;;;;;;19.14;59.25;97848.72;5014110;28;20413;-82
2022/05/23 08:39:00;;;;;;;7.03;4.05;;;;;;;19.24;59.06;97852.97;5008913;28;20285;-82
2022/05/23 08:41:30;;;;;;;6.25;4.38;;;;;;;19.21;59.02;97851.69;5007785;28;20048;-83
2022/05/23 08:44:16;;;;;;;8.18;4.03;;;;;;;19.35;59.02;97856.91;5014806;28;20465;-83
2022/05/23 08:46:55;;;;;;;7.93;4.25;;;;;;;19.37;58.75;97847.31;5008053;28;20594;-82
2022/05/23 08:49:33;;;;;;;6.45;4.05;;;;;;;19.50;58.56;97853.59;5009103;28;20045;-81
2022/05/23 08:52:06;;;;;;;4.80;3.92;;;;;;;19.56;58.29;97846.06;5005784;28;20022;-83
2022/05/23 08:54:54;;;;;;;6.45;4.22;;;;;;;19.62;58.42;97842.00;5005047;28;20494;-82
2022/05/23 08:57:35;;;;;;;5.72;3.75;;;;;;;19.61;58.17;97835.84;5010994;28;20029;-82
2022/05/23 09:00:09;;;;;;;5.88;4.03;;;;;;;19.65;57.92;97828.63;5008631;28;20034;-82
2022/05/23 09:02:41;;;;;;;4.15;3.75;;;;;;;19.71;58.02;97821.06;5009498;28;21337;-83
2022/05/23 09:05:12;;;;;;;5.22;3.88;;;;;;;19.68;57.51;97805.50;5011908;28;21109;-81
2022/05/23 09:08:01;;;;;;;9.18;4.45;;;;;;;19.85;57.71;97813.47;5005177;28;20543;-81
2022/05/23 09:10:54;;;;;;;7.45;4.32;;;;;;;19.90;57.62;97816.75;5006854;28;20120;-81
2022/05/23 09:13:22;;;;;;;5.40;3.67;;;;;;;19.95;57.58;97810.34;5000352;28;20035;-81
2022/05/23 09:15:51;;;;;;;5.25;4.50;;;;;;;19.97;57.80;97794.53;5013038;28;20396;-81
2022/05/23 09:18:26;;;;;;;5.55;3.92;;;;;;;20.02;57.51;97786.22;5011698;28;20117;-81
2022/05/23 09:20:57;;;;;;;6.30;4.15;;;;;;;20.09;57.42;97805.41;5008647;28;20032;-81
2022/05/23 09:23:27;;;;;;;5.05;4.03;;;;;;;20.13;57.53;97800.91;5017453;28;20099;-81
2022/05/23 09:25:55;;;;;;;6.20;4.13;;;;;;;20.13;57.51;97792.78;5013136;28;20030;-81
2022/05/23 09:28:36;;;;;;;8.15;4.93;;;;;;;20.17;57.27;97777.44;5006428;28;20092;-81
2022/05/23 09:31:16;;;;;;;6.82;4.22;;;;;;;20.31;57.02;97782.56;5000402;28;20025;-81
2022/05/23 09:33:45;;;;;;;4.72;3.97;;;;;;;20.29;57.30;97768.56;5019511;28;20060;-81
2022/05/23 09:36:18;;;;;;;5.40;4.03;;;;;;;20.40;57.01;97770.47;5014744;28;20389;-81
2022/05/23 09:38:46;;;;;;;8.25;4.00;;;;;;;20.48;57.25;97766.06;5006912;28;20021;-81
2022/05/23 09:49:55;;;;;;;5.95;3.85;;;;;;;20.72;56.15;97774.22;5011926;28;20120;-80
2022/05/23 09:52:42;;;;;;;4.95;3.50;;;;;;;20.83;56.02;97767.19;4987283;28;20054;-81
2022/05/23 09:55:09;;;;;;;;;;;;;;;21.01;55.90;97773.16;5004235;28;20042;-80
2022/05/23 09:57:39;;;;;;;6.05;3.90;;;;;;;20.92;55.87;97765.91;4998805;28;19983;-80
2022/05/23 10:00:17;;;;;;;4.40;3.35;;;;;;;21.03;56.10;97768.19;5001191;28;20045;-81
2022/05/23 10:02:59;;;;;;;4.88;3.15;;;;;;;21.14;55.95;97772.03;5024154;28;20030;-80
2022/05/23 10:05:29;;;;;;;3.92;3.38;;;;;;;21.13;56.15;97770.44;5018975;28;20034;-80
2022/05/23 10:08:02;;;;;;;6.50;3.63;;;;;;;21.31;55.70;97771.75;4989637;28;20044;-80
2022/05/23 10:10:31;;;;;;;5.45;3.15;;;;;;;21.47;55.52;97769.91;5001710;28;20088;-80
2022/05/23 10:13:18;;;;;;;8.40;3.55;;;;;;;21.52;55.55;97762.28;5019572;28;20598;-80
2022/05/23 10:15:58;;;;;;;3.20;2.65;;;;;;;21.57;55.37;97766.69;5014850;28;20033;-80
2022/05/23 10:18:27;;;;;;;10.65;3.42;;;;;;;21.68;55.37;97759.63;5002017;28;20029;-80
2022/05/23 10:20:53;;;;;;;5.05;3.35;;;;;;;21.67;54.91;97753.38;5004848;28;20087;-81
2022/05/23 10:23:22;;;;;;;5.30;2.97;;;;;;;21.78;55.36;97766.44;5004903;28;20044;-80
2022/05/23 10:26:06;;;;;;;7.28;3.28;;;;;;;21.88;55.42;97774.94;5009411;28;20076;-80
2022/05/23 10:28:53;;;;;;;5.00;3.10;;;;;;;21.97;55.24;97761.19;5000533;28;20065;-81
2022/05/23 10:31:29;;;;;;;8.05;3.25;;;;;;;21.99;55.22;97759.72;5014853;28;20029;-81
2022/05/23 10:34:16;;;;;;;4.50;3.00;;;;;;;22.15;54.90;97746.09;5018518;28;20052;-81
2022/05/23 10:36:46;;;;;;;5.75;4.07;;;;;;;22.24;54.84;97744.81;5024275;28;20029;-81
2022/05/23 10:42:15;;;;;;;3.53;2.88;;;;;;;22.28;54.82;97750.31;5005499;28;20520;-81
2022/05/23 10:45:08;;;;;;;6.05;2.97;;;;;;;22.34;55.10;97754.38;5004930;28;20022;-81
2022/05/23 10:47:53;;;;;;;3.33;3.03;;;;;;;22.30;54.95;97750.78;5011123;28;20084;-81
2022/05/23 10:50:33;;;;;;;4.20;3.17;;;;;;;22.38;54.82;97739.72;5002132;28;20025;-81
2022/05/23 10:53:20;;;;;;;3.95;2.80;;;;;;;22.35;54.52;97726.81;5009245;28;20029;-81
2022/05/23 10:56:09;;;;;;;4.70;4.20;;;;;;;22.41;54.46;97732.78;5017034;28;20022;-81
2022/05/23 10:58:37;;;;;;;3.45;3.15;;;;;;;22.41;54.46;97732.78;5027841;28;21463;-81
2022/05/23 11:01:18;;;;;;;4.60;2.97;;;;;;;22.37;54.38;97721.81;5007805;28;20041;-81
2022/05/23 11:04:02;;;;;;;8.50;3.13;;;;;;;22.44;55.07;97731.28;5012147;28;20041;-80
2022/05/23 11:06:44;;;;;;;4.38;2.88;;;;;;;22.45;54.31;97738.31;5027588;28;20788;-81
2022/05/23 11:09:19;;;;;;;5.53;3.00;;;;;;;22.48;54.07;97727.50;5028449;28;20033;-81
2022/05/23 11:12:17;;;;;;;4.82;3.40;;;;;;;22.47;54.00;97723.22;5003590;28;20540;-81
2022/05/23 11:15:09;;;;;;;10.35;3.53;;;;;;;22.50;53.95;97716.28;5018334;28;20492;-80
2022/05/23 11:17:39;;;;;;;6.93;3.58;;;;;;;22.44;54.30;97714.97;5007330;28;20481;-81
2022/05/23 11:20:29;;;;;;;4.10;3.20;;;;;;;22.48;53.89;97721.28;5005708;28;20030;-81
2022/05/23 11:23:02;;;;;;;7.00;2.90;;;;;;;22.42;54.07;97706.38;5023611;28;20030;-82
2022/05/23 11:25:34;;;;;;;3.58;3.28;;;;;;;22.29;54.09;97695.63;5010787;28;20458;-81
2022/05/23 11:34:22;;;;;;;3.72;2.95;;;;;;;22.44;54.60;97702.16;5008587;28;20072;-81
2022/05/23 11:39:53;;;;;;;8.77;4.05;;;;;;;22.37;53.89;97708.22;5005439;28;20076;-82
2022/05/23 11:42:22;;;;;;;9.10;3.97;;;;;;;22.29;54.35;97716.56;4996481;28;20034;-83
2022/05/23 11:44:49;;;;;;;5.35;4.03;;;;;;;22.17;54.46;97720.16;5009424;28;20034;-82
2022/05/23 11:47:39;;;;;;;7.57;3.67;;;;;;;22.12;54.04;97719.66;5021199;28;20440;-83
2022/05/23 11:50:29;;;;;;;6.78;3.97;;;;;;;21.87;54.88;97693.75;5010899;28;20120;-82
2022/05/23 11:53:16;;;;;;;6.97;4.20;;;;;;;22.05;54.96;97725.69;5011149;28;20057;-83
2022/05/23 11:55:52;;;;;;;5.15;3.83;;;;;;;22.13;54.94;97716.56;5018908;28;20029;-84
2022/05/23 11:58:46;;;;;;;4.38;3.45;;;;;;;22.07;55.18;97712.53;5010808;28;20037;-83
2022/05/23 12:01:14;;;;;;;10.65;3.65;;;;;;;22.15;55.21;97703.41;5019084;28;20027;-84
2022/05/23 12:04:13;;;;;;;6.97;3.30;;;;;;;22.26;55.09;97701.75;5015434;28;20034;-84
2022/05/23 12:06:41;;;;;;;3.72;3.35;;;;;;;22.27;55.03;97691.66;5010553;28;20034;-83
2022/05/23 12:09:26;;;;;;;4.20;3.25;;;;;;;22.41;55.09;97696.66;5002900;28;20058;-83
2022/05/23 12:12:12;;;;;;;8.40;4.10;;;;;;;22.45;54.58;97692.09;5010462;28;20546;-83
2022/05/23 12:14:37;;;;;;;;;;;;;;;22.68;54.55;97687.56;5014754;28;20041;-83
2022/05/23 12:17:10;;;;;;;4.20;3.80;;;;;;;22.70;54.49;97677.13;5023397;28;19913;-83
2022/05/23 12:19:38;;;;;;;7.95;3.97;;;;;;;22.80;54.32;97677.34;4980870;28;20036;-83
2022/05/23 12:22:32;;;;;;;6.63;3.35;;;;;;;22.81;54.06;97664.53;5015390;28;20026;-83
2022/05/23 12:25:17;;;;;;;6.65;3.45;;;;;;;22.90;54.14;97667.84;4995506;28;20040;-83
2022/05/23 12:27:42;;;;;;;6.80;3.40;;;;;;;22.91;54.14;97659.31;5010967;28;20029;-83
2022/05/23 12:30:17;;;;;;;9.13;3.33;;;;;;;22.92;54.46;97652.75;5011594;28;20037;-83
2022/05/23 12:32:43;;;;;;;6.05;3.30;;;;;;;22.90;54.44;97646.88;5005789;28;20290;-83
2022/05/23 12:35:10;;;;;;;3.67;3.30;;;;;;;22.82;54.42;97634.28;5008196;28;20113;-83
2022/05/23 12:37:41;;;;;;;5.93;3.40;;;;;;;22.93;54.57;97648.09;5031478;28;20572;-83
2022/05/23 12:40:22;;;;;;;4.50;3.42;;;;;;;22.86;54.57;97637.84;5009743;28;20030;-83
2022/05/23 12:43:00;;;;;;;4.30;3.08;;;;;;;22.92;54.80;97638.34;5007976;28;20113;-83